Airfield :
LOGIN :

Register | Disclaimer

   EN    FR    IT 

 










Legend :    VFR   Marginal VFR   IFR   Intensive IFR   Very Intensive IFR
Visi :
Ceiling :
>= 8 km
>= 3000ft
5 to 8 km
1000 to 3000 ft
1500m to 5 km
500 to 1000 ft
800 to 1500m
200 to 500 ft
< 800m
< 200 ft
Symbols :   Thunderstorms  Fog  Heavy snow  Heavy precipitations  Wind > 20 kt
SIGMETs :     Misc.  Thunderstorms  Icing  Turbulence  Mountain Waves  Volcanic Ashes






- Airport Elevation : 375 ft
- IATA code : MST


EHBK - Maastricht Aachen

CURRENT METAR :
  • 300125Z AUTO 22006KT 8000 NSC 14/14 Q1016

EXPIRED METARs :
  • 300055Z AUTO 21005KT 8000 FEW041 BKN047 14/14 Q1016
  • 300025Z AUTO 21005KT 6000 OVC047 14/14 Q1016
  • 292355Z AUTO 21005KT 7000 NSC 14/13 Q1016
  • 292325Z AUTO 21006KT 9999 OVC013 15/14 Q1017
  • 292255Z AUTO 20007KT 9999 BKN011 BKN028 OVC035 15/14 Q1017 REDZ

TAF TAF EHBK
Valid from the 30 at 00:00 until the 01 at 06:00 UTC


292306Z 3000/0106 21007KT 9999 BKN020
PROB30 3000/3007 2500 BR BKN003



MET'MAP, your aeronautical weather chart ! - Copyright ORBIFLY December 2007 - Disclaimer

ORBIFLY MET'MAP TEAM :

Programming & Development : Alexandra Zaïnal
Concept & original design : Baudouin d'Aumeries
Assistance for programming : Marc-Olivier Méhu
Technical & hardware support : Manuel Goepfert

Contact : metmap@orbifly.com




SOURCES & CREDITS :

   NOAA